sensor_id;sensor_type;location;lat;lon;timestamp;temperature;humidity
18880;DHT22;9572;52.378;13.404;2024-03-17T00:00:48;4.60;99.90
18880;DHT22;9572;52.378;13.404;2024-03-17T00:03:14;4.60;99.90
18880;DHT22;9572;52.378;13.404;2024-03-17T00:05:41;4.70;99.90
18880;DHT22;9572;52.378;13.404;2024-03-17T00:08:08;4.70;99.90
18880;DHT22;9572;52.378;13.404;2024-03-17T00:10:34;4.60;99.90
18880;DHT22;9572;52.378;13.404;2024-03-17T00:13:01;4.70;99.90
18880;DHT22;9572;52.378;13.404;2024-03-17T00:15:27;4.80;99.90
18880;DHT22;9572;52.378;13.404;2024-03-17T00:17:54;4.70;99.90
18880;DHT22;9572;52.378;13.404;2024-03-17T00:20:19;4.60;99.90
18880;DHT22;9572;52.378;13.404;2024-03-17T00:22:49;4.60;99.90
18880;DHT22;9572;52.378;13.404;2024-03-17T00:25:16;4.60;99.90
18880;DHT22;9572;52.378;13.404;2024-03-17T00:27:43;4.50;99.90
18880;DHT22;9572;52.378;13.404;2024-03-17T00:30:11;4.60;99.90
18880;DHT22;9572;52.378;13.404;2024-03-17T00:32:39;4.60;99.90
18880;DHT22;9572;52.378;13.404;2024-03-17T00:35:06;4.50;99.90
18880;DHT22;9572;52.378;13.404;2024-03-17T00:37:33;4.50;99.90
18880;DHT22;9572;52.378;13.404;2024-03-17T00:40:01;4.50;99.90
18880;DHT22;9572;52.378;13.404;2024-03-17T00:42:27;4.50;99.90
18880;DHT22;9572;52.378;13.404;2024-03-17T00:44:54;4.50;99.90
18880;DHT22;9572;52.378;13.404;2024-03-17T00:47:20;4.40;99.90
18880;DHT22;9572;52.378;13.404;2024-03-17T00:49:47;4.40;99.90
18880;DHT22;9572;52.378;13.404;2024-03-17T00:52:15;4.40;99.90
18880;DHT22;9572;52.378;13.404;2024-03-17T00:54:42;4.40;99.90
18880;DHT22;9572;52.378;13.404;2024-03-17T00:57:09;4.30;99.90
18880;DHT22;9572;52.378;13.404;2024-03-17T00:59:36;4.40;99.90
18880;DHT22;9572;52.378;13.404;2024-03-17T01:02:01;4.30;99.90
18880;DHT22;9572;52.378;13.404;2024-03-17T01:04:28;4.20;99.90
18880;DHT22;9572;52.378;13.404;2024-03-17T01:06:54;4.20;99.90
18880;DHT22;9572;52.378;13.404;2024-03-17T01:09:21;4.30;99.90
18880;DHT22;9572;52.378;13.404;2024-03-17T01:11:46;4.20;99.90
18880;DHT22;9572;52.378;13.404;2024-03-17T01:14:14;4.00;99.90
18880;DHT22;9572;52.378;13.404;2024-03-17T01:16:41;4.00;99.90
18880;DHT22;9572;52.378;13.404;2024-03-17T01:19:07;4.00;99.90
18880;DHT22;9572;52.378;13.404;2024-03-17T01:21:33;4.00;99.90
18880;DHT22;9572;52.378;13.404;2024-03-17T01:24:00;4.00;99.90
18880;DHT22;9572;52.378;13.404;2024-03-17T01:26:25;4.00;99.90
18880;DHT22;9572;52.378;13.404;2024-03-17T01:28:52;4.10;99.90
18880;DHT22;9572;52.378;13.404;2024-03-17T01:31:19;4.10;99.90
18880;DHT22;9572;52.378;13.404;2024-03-17T01:33:46;4.10;99.90
18880;DHT22;9572;52.378;13.404;2024-03-17T01:36:12;4.10;99.90
18880;DHT22;9572;52.378;13.404;2024-03-17T01:38:39;4.00;99.90
18880;DHT22;9572;52.378;13.404;2024-03-17T01:41:05;4.10;99.90
18880;DHT22;9572;52.378;13.404;2024-03-17T01:43:31;4.00;99.90
18880;DHT22;9572;52.378;13.404;2024-03-17T01:45:58;3.90;99.90
18880;DHT22;9572;52.378;13.404;2024-03-17T01:48:27;3.90;99.90
18880;DHT22;9572;52.378;13.404;2024-03-17T01:50:53;3.80;99.90
18880;DHT22;9572;52.378;13.404;2024-03-17T01:53:21;3.90;99.90
18880;DHT22;9572;52.378;13.404;2024-03-17T01:55:50;3.80;99.90
18880;DHT22;9572;52.378;13.404;2024-03-17T01:58:17;3.80;99.90
18880;DHT22;9572;52.378;13.404;2024-03-17T02:00:45;3.70;99.90
18880;DHT22;9572;52.378;13.404;2024-03-17T02:03:12;3.70;99.90
18880;DHT22;9572;52.378;13.404;2024-03-17T02:05:39;3.80;99.90
18880;DHT22;9572;52.378;13.404;2024-03-17T02:08:07;3.90;99.90
18880;DHT22;9572;52.378;13.404;2024-03-17T02:10:32;3.90;99.90
18880;DHT22;9572;52.378;13.404;2024-03-17T02:12:59;3.80;99.90
18880;DHT22;9572;52.378;13.404;2024-03-17T02:15:25;3.80;99.90
18880;DHT22;9572;52.378;13.404;2024-03-17T02:17:52;3.60;99.90
18880;DHT22;9572;52.378;13.404;2024-03-17T02:20:18;3.50;99.90
18880;DHT22;9572;52.378;13.404;2024-03-17T02:22:46;3.40;99.90
18880;DHT22;9572;52.378;13.404;2024-03-17T02:25:12;3.40;99.90
18880;DHT22;9572;52.378;13.404;2024-03-17T02:27:38;3.40;99.90
18880;DHT22;9572;52.378;13.404;2024-03-17T02:30:05;3.50;99.90
18880;DHT22;9572;52.378;13.404;2024-03-17T02:32:34;3.50;99.90
18880;DHT22;9572;52.378;13.404;2024-03-17T02:35:00;3.60;99.90
18880;DHT22;9572;52.378;13.404;2024-03-17T02:37:26;3.60;99.90
18880;DHT22;9572;52.378;13.404;2024-03-17T02:39:53;3.60;99.90
18880;DHT22;9572;52.378;13.404;2024-03-17T02:42:20;3.40;99.90
18880;DHT22;9572;52.378;13.404;2024-03-17T02:44:46;3.20;99.90
18880;DHT22;9572;52.378;13.404;2024-03-17T02:47:13;3.30;99.90
18880;DHT22;9572;52.378;13.404;2024-03-17T02:49:41;3.20;99.90
18880;DHT22;9572;52.378;13.404;2024-03-17T02:52:10;3.20;99.90
18880;DHT22;9572;52.378;13.404;2024-03-17T02:54:38;3.10;99.90
18880;DHT22;9572;52.378;13.404;2024-03-17T02:57:06;3.10;99.90
18880;DHT22;9572;52.378;13.404;2024-03-17T02:59:33;3.10;99.90
18880;DHT22;9572;52.378;13.404;2024-03-17T03:02:00;3.10;99.90
18880;DHT22;9572;52.378;13.404;2024-03-17T03:04:27;3.10;99.90
18880;DHT22;9572;52.378;13.404;2024-03-17T03:06:54;3.10;99.90
18880;DHT22;9572;52.378;13.404;2024-03-17T03:09:21;3.00;99.90
18880;DHT22;9572;52.378;13.404;2024-03-17T03:11:56;3.00;99.90
18880;DHT22;9572;52.378;13.404;2024-03-17T03:14:24;3.10;99.90
18880;DHT22;9572;52.378;13.404;2024-03-17T03:16:51;3.20;99.90
18880;DHT22;9572;52.378;13.404;2024-03-17T03:19:18;3.10;99.90
18880;DHT22;9572;52.378;13.404;2024-03-17T03:21:45;2.90;99.90
18880;DHT22;9572;52.378;13.404;2024-03-17T03:24:13;2.90;99.90
18880;DHT22;9572;52.378;13.404;2024-03-17T03:26:39;2.90;99.90
18880;DHT22;9572;52.378;13.404;2024-03-17T03:29:06;3.00;99.90
18880;DHT22;9572;52.378;13.404;2024-03-17T03:31:34;3.10;99.90
18880;DHT22;9572;52.378;13.404;2024-03-17T03:34:01;3.00;99.90
18880;DHT22;9572;52.378;13.404;2024-03-17T03:36:28;3.10;99.90
18880;DHT22;9572;52.378;13.404;2024-03-17T03:38:55;3.00;99.90
18880;DHT22;9572;52.378;13.404;2024-03-17T03:41:23;3.00;99.90
18880;DHT22;9572;52.378;13.404;2024-03-17T03:43:50;3.00;99.90
18880;DHT22;9572;52.378;13.404;2024-03-17T03:46:17;2.80;99.90
18880;DHT22;9572;52.378;13.404;2024-03-17T03:48:45;2.80;99.90
18880;DHT22;9572;52.378;13.404;2024-03-17T03:51:13;2.90;99.90
18880;DHT22;9572;52.378;13.404;2024-03-17T03:53:39;2.90;99.90
18880;DHT22;9572;52.378;13.404;2024-03-17T03:56:08;2.90;99.90
18880;DHT22;9572;52.378;13.404;2024-03-17T03:58:37;2.90;99.90
18880;DHT22;9572;52.378;13.404;2024-03-17T04:01:05;2.90;99.90
18880;DHT22;9572;52.378;13.404;2024-03-17T04:03:32;3.00;99.90
18880;DHT22;9572;52.378;13.404;2024-03-17T04:06:05;2.90;99.90
18880;DHT22;9572;52.378;13.404;2024-03-17T04:08:33;2.80;99.90
18880;DHT22;9572;52.378;13.404;2024-03-17T04:11:00;2.80;99.90
18880;DHT22;9572;52.378;13.404;2024-03-17T04:13:27;2.70;99.90
18880;DHT22;9572;52.378;13.404;2024-03-17T04:15:55;2.60;99.90
18880;DHT22;9572;52.378;13.404;2024-03-17T04:18:22;2.80;99.90
18880;DHT22;9572;52.378;13.404;2024-03-17T04:20:50;2.90;99.90
18880;DHT22;9572;52.378;13.404;2024-03-17T04:23:18;2.90;99.90
18880;DHT22;9572;52.378;13.404;2024-03-17T04:25:45;3.00;99.90
18880;DHT22;9572;52.378;13.404;2024-03-17T04:28:12;3.00;99.90
18880;DHT22;9572;52.378;13.404;2024-03-17T04:30:39;2.90;99.90
18880;DHT22;9572;52.378;13.404;2024-03-17T04:33:05;2.80;99.90
18880;DHT22;9572;52.378;13.404;2024-03-17T04:35:35;2.80;99.90
18880;DHT22;9572;52.378;13.404;2024-03-17T04:38:02;2.80;99.90
18880;DHT22;9572;52.378;13.404;2024-03-17T04:40:31;2.80;99.90
18880;DHT22;9572;52.378;13.404;2024-03-17T04:42:57;2.70;99.90
18880;DHT22;9572;52.378;13.404;2024-03-17T04:45:24;2.80;99.90
18880;DHT22;9572;52.378;13.404;2024-03-17T04:47:51;2.70;99.90
18880;DHT22;9572;52.378;13.404;2024-03-17T04:50:18;2.60;99.90
18880;DHT22;9572;52.378;13.404;2024-03-17T04:52:46;2.70;99.90
18880;DHT22;9572;52.378;13.404;2024-03-17T04:55:14;2.60;99.90
18880;DHT22;9572;52.378;13.404;2024-03-17T04:57:43;2.70;99.90
18880;DHT22;9572;52.378;13.404;2024-03-17T05:00:11;2.60;99.90
18880;DHT22;9572;52.378;13.404;2024-03-17T05:02:37;2.50;99.90
18880;DHT22;9572;52.378;13.404;2024-03-17T05:05:05;2.50;99.90
18880;DHT22;9572;52.378;13.404;2024-03-17T05:07:33;2.60;99.90
18880;DHT22;9572;52.378;13.404;2024-03-17T05:10:00;2.60;99.90
18880;DHT22;9572;52.378;13.404;2024-03-17T05:12:27;2.60;99.90
18880;DHT22;9572;52.378;13.404;2024-03-17T05:14:55;2.40;99.90
18880;DHT22;9572;52.378;13.404;2024-03-17T05:17:21;2.60;99.90
18880;DHT22;9572;52.378;13.404;2024-03-17T05:19:48;2.60;99.90
18880;DHT22;9572;52.378;13.404;2024-03-17T05:22:15;2.60;99.90
18880;DHT22;9572;52.378;13.404;2024-03-17T05:24:42;2.70;99.90
18880;DHT22;9572;52.378;13.404;2024-03-17T05:27:08;2.70;99.90
18880;DHT22;9572;52.378;13.404;2024-03-17T05:29:35;2.60;99.90
18880;DHT22;9572;52.378;13.404;2024-03-17T05:32:05;2.40;99.90
18880;DHT22;9572;52.378;13.404;2024-03-17T05:34:31;2.50;99.90
18880;DHT22;9572;52.378;13.404;2024-03-17T05:36:59;2.50;99.90
18880;DHT22;9572;52.378;13.404;2024-03-17T05:39:27;2.60;99.90
18880;DHT22;9572;52.378;13.404;2024-03-17T05:41:53;2.50;99.90
18880;DHT22;9572;52.378;13.404;2024-03-17T05:44:20;2.50;99.90
18880;DHT22;9572;52.378;13.404;2024-03-17T05:46:47;2.50;99.90
18880;DHT22;9572;52.378;13.404;2024-03-17T05:49:15;2.60;99.90
18880;DHT22;9572;52.378;13.404;2024-03-17T05:51:42;2.60;99.90
18880;DHT22;9572;52.378;13.404;2024-03-17T05:54:09;2.80;99.90
18880;DHT22;9572;52.378;13.404;2024-03-17T05:56:37;3.00;99.90
18880;DHT22;9572;52.378;13.404;2024-03-17T05:59:04;3.20;99.90
18880;DHT22;9572;52.378;13.404;2024-03-17T06:01:31;3.30;99.90
18880;DHT22;9572;52.378;13.404;2024-03-17T06:03:58;3.40;99.90
18880;DHT22;9572;52.378;13.404;2024-03-17T06:06:26;3.40;99.90
18880;DHT22;9572;52.378;13.404;2024-03-17T06:08:53;3.60;99.90
18880;DHT22;9572;52.378;13.404;2024-03-17T06:11:20;3.80;99.90
18880;DHT22;9572;52.378;13.404;2024-03-17T06:13:46;3.80;99.90
18880;DHT22;9572;52.378;13.404;2024-03-17T06:16:13;3.90;99.90
18880;DHT22;9572;52.378;13.404;2024-03-17T06:18:40;4.00;99.90
18880;DHT22;9572;52.378;13.404;2024-03-17T06:21:06;4.10;99.90
18880;DHT22;9572;52.378;13.404;2024-03-17T06:23:36;4.10;99.90
18880;DHT22;9572;52.378;13.404;2024-03-17T06:26:03;4.10;99.90
18880;DHT22;9572;52.378;13.404;2024-03-17T06:28:31;4.20;99.90
18880;DHT22;9572;52.378;13.404;2024-03-17T06:30:58;4.20;99.90
18880;DHT22;9572;52.378;13.404;2024-03-17T06:33:27;4.20;99.90
18880;DHT22;9572;52.378;13.404;2024-03-17T06:35:54;4.20;99.90
18880;DHT22;9572;52.378;13.404;2024-03-17T06:38:21;4.20;99.90
18880;DHT22;9572;52.378;13.404;2024-03-17T06:40:50;4.40;99.90
18880;DHT22;9572;52.378;13.404;2024-03-17T06:43:18;4.50;99.90
18880;DHT22;9572;52.378;13.404;2024-03-17T06:45:53;4.50;99.90
18880;DHT22;9572;52.378;13.404;2024-03-17T06:48:20;4.50;99.90
18880;DHT22;9572;52.378;13.404;2024-03-17T06:50:47;4.60;99.90
18880;DHT22;9572;52.378;13.404;2024-03-17T06:53:14;4.70;99.90
18880;DHT22;9572;52.378;13.404;2024-03-17T06:55:41;4.60;99.90
18880;DHT22;9572;52.378;13.404;2024-03-17T06:58:09;4.60;99.90
18880;DHT22;9572;52.378;13.404;2024-03-17T07:00:36;4.60;99.90
18880;DHT22;9572;52.378;13.404;2024-03-17T07:03:03;4.70;99.90
18880;DHT22;9572;52.378;13.404;2024-03-17T07:05:30;4.80;99.90
18880;DHT22;9572;52.378;13.404;2024-03-17T07:07:58;4.80;99.90
18880;DHT22;9572;52.378;13.404;2024-03-17T07:10:24;4.90;99.90
18880;DHT22;9572;52.378;13.404;2024-03-17T07:12:52;5.00;99.90
18880;DHT22;9572;52.378;13.404;2024-03-17T07:15:20;5.30;99.90
18880;DHT22;9572;52.378;13.404;2024-03-17T07:17:46;5.50;99.90
18880;DHT22;9572;52.378;13.404;2024-03-17T07:20:13;5.60;99.90
18880;DHT22;9572;52.378;13.404;2024-03-17T07:22:40;5.70;99.90
18880;DHT22;9572;52.378;13.404;2024-03-17T07:25:07;5.60;99.90
18880;DHT22;9572;52.378;13.404;2024-03-17T07:27:35;5.40;99.90
18880;DHT22;9572;52.378;13.404;2024-03-17T07:30:04;5.50;99.90
18880;DHT22;9572;52.378;13.404;2024-03-17T07:32:33;5.60;99.90
18880;DHT22;9572;52.378;13.404;2024-03-17T07:35:00;5.50;99.90
18880;DHT22;9572;52.378;13.404;2024-03-17T07:37:26;5.70;99.90
18880;DHT22;9572;52.378;13.404;2024-03-17T07:39:53;5.80;99.90
18880;DHT22;9572;52.378;13.404;2024-03-17T07:42:20;6.00;99.90
18880;DHT22;9572;52.378;13.404;2024-03-17T07:44:47;5.90;99.90
18880;DHT22;9572;52.378;13.404;2024-03-17T07:47:13;6.00;99.90
18880;DHT22;9572;52.378;13.404;2024-03-17T07:49:41;6.10;99.90
18880;DHT22;9572;52.378;13.404;2024-03-17T07:52:12;6.10;99.90
18880;DHT22;9572;52.378;13.404;2024-03-17T07:54:38;6.20;99.90
18880;DHT22;9572;52.378;13.404;2024-03-17T07:57:05;6.10;99.90
18880;DHT22;9572;52.378;13.404;2024-03-17T07:59:34;6.10;99.90
18880;DHT22;9572;52.378;13.404;2024-03-17T08:02:01;6.30;99.90
18880;DHT22;9572;52.378;13.404;2024-03-17T08:04:27;6.50;99.90
18880;DHT22;9572;52.378;13.404;2024-03-17T08:06:56;6.70;99.90
18880;DHT22;9572;52.378;13.404;2024-03-17T08:09:23;6.70;99.90
18880;DHT22;9572;52.378;13.404;2024-03-17T08:11:49;6.70;99.90
18880;DHT22;9572;52.378;13.404;2024-03-17T08:14:16;6.70;99.90
18880;DHT22;9572;52.378;13.404;2024-03-17T08:16:43;6.50;99.90
18880;DHT22;9572;52.378;13.404;2024-03-17T08:19:10;6.60;99.90
18880;DHT22;9572;52.378;13.404;2024-03-17T08:21:36;6.70;99.90
18880;DHT22;9572;52.378;13.404;2024-03-17T08:24:05;7.00;99.90
18880;DHT22;9572;52.378;13.404;2024-03-17T08:26:32;7.30;99.90
18880;DHT22;9572;52.378;13.404;2024-03-17T08:28:58;7.60;99.90
18880;DHT22;9572;52.378;13.404;2024-03-17T08:31:25;7.50;99.90
18880;DHT22;9572;52.378;13.404;2024-03-17T08:33:53;7.30;99.90
18880;DHT22;9572;52.378;13.404;2024-03-17T08:36:20;7.20;99.90
18880;DHT22;9572;52.378;13.404;2024-03-17T08:38:48;7.00;99.90
18880;DHT22;9572;52.378;13.404;2024-03-17T08:41:20;6.90;99.90
18880;DHT22;9572;52.378;13.404;2024-03-17T08:43:47;6.80;99.90
18880;DHT22;9572;52.378;13.404;2024-03-17T08:46:17;6.90;99.90
18880;DHT22;9572;52.378;13.404;2024-03-17T08:48:49;7.00;99.90
18880;DHT22;9572;52.378;13.404;2024-03-17T08:51:17;7.10;99.90
18880;DHT22;9572;52.378;13.404;2024-03-17T08:53:49;7.00;99.90
18880;DHT22;9572;52.378;13.404;2024-03-17T08:56:20;6.90;99.90
18880;DHT22;9572;52.378;13.404;2024-03-17T08:58:48;7.00;99.90
18880;DHT22;9572;52.378;13.404;2024-03-17T09:01:16;7.10;99.90
18880;DHT22;9572;52.378;13.404;2024-03-17T09:03:42;7.40;99.90
18880;DHT22;9572;52.378;13.404;2024-03-17T09:06:14;7.60;99.90
18880;DHT22;9572;52.378;13.404;2024-03-17T09:08:42;7.60;99.90
18880;DHT22;9572;52.378;13.404;2024-03-17T09:11:12;7.60;99.90
18880;DHT22;9572;52.378;13.404;2024-03-17T09:13:40;7.60;99.90
18880;DHT22;9572;52.378;13.404;2024-03-17T09:16:08;7.50;99.90
18880;DHT22;9572;52.378;13.404;2024-03-17T09:18:37;7.70;99.90
18880;DHT22;9572;52.378;13.404;2024-03-17T09:21:05;7.80;99.90
18880;DHT22;9572;52.378;13.404;2024-03-17T09:23:33;7.90;99.90
18880;DHT22;9572;52.378;13.404;2024-03-17T09:26:01;7.90;99.90
18880;DHT22;9572;52.378;13.404;2024-03-17T09:28:28;7.90;99.90
18880;DHT22;9572;52.378;13.404;2024-03-17T09:30:57;7.80;99.90
18880;DHT22;9572;52.378;13.404;2024-03-17T09:33:25;7.90;99.90
18880;DHT22;9572;52.378;13.404;2024-03-17T09:35:56;8.00;99.90
18880;DHT22;9572;52.378;13.404;2024-03-17T09:38:23;8.00;99.90
18880;DHT22;9572;52.378;13.404;2024-03-17T09:40:50;8.20;99.90
18880;DHT22;9572;52.378;13.404;2024-03-17T09:43:19;8.20;99.90
18880;DHT22;9572;52.378;13.404;2024-03-17T09:45:46;8.10;99.90
18880;DHT22;9572;52.378;13.404;2024-03-17T09:48:16;8.00;99.90
18880;DHT22;9572;52.378;13.404;2024-03-17T09:50:50;7.80;99.90
18880;DHT22;9572;52.378;13.404;2024-03-17T09:53:23;7.80;99.90
18880;DHT22;9572;52.378;13.404;2024-03-17T09:55:50;7.80;99.90
18880;DHT22;9572;52.378;13.404;2024-03-17T09:58:17;7.90;99.90
18880;DHT22;9572;52.378;13.404;2024-03-17T10:00:45;8.00;99.90
18880;DHT22;9572;52.378;13.404;2024-03-17T10:03:12;8.00;99.90
18880;DHT22;9572;52.378;13.404;2024-03-17T10:05:40;7.80;99.90
18880;DHT22;9572;52.378;13.404;2024-03-17T10:08:20;7.70;99.90
18880;DHT22;9572;52.378;13.404;2024-03-17T10:10:52;7.80;99.90
18880;DHT22;9572;52.378;13.404;2024-03-17T10:13:19;7.90;99.90
18880;DHT22;9572;52.378;13.404;2024-03-17T10:15:48;8.30;99.90
18880;DHT22;9572;52.378;13.404;2024-03-17T10:18:21;8.50;99.90
18880;DHT22;9572;52.378;13.404;2024-03-17T10:20:50;9.20;99.90
18880;DHT22;9572;52.378;13.404;2024-03-17T10:23:21;10.00;99.90
18880;DHT22;9572;52.378;13.404;2024-03-17T10:25:48;11.00;99.90
18880;DHT22;9572;52.378;13.404;2024-03-17T10:28:16;11.30;99.90
18880;DHT22;9572;52.378;13.404;2024-03-17T10:30:57;11.40;99.90
18880;DHT22;9572;52.378;13.404;2024-03-17T10:33:25;11.00;99.90
18880;DHT22;9572;52.378;13.404;2024-03-17T10:36:00;10.80;99.90
18880;DHT22;9572;52.378;13.404;2024-03-17T10:38:27;11.40;99.90
18880;DHT22;9572;52.378;13.404;2024-03-17T10:40:54;12.30;99.90
18880;DHT22;9572;52.378;13.404;2024-03-17T10:43:21;13.50;99.90
18880;DHT22;9572;52.378;13.404;2024-03-17T10:45:52;13.30;99.90
18880;DHT22;9572;52.378;13.404;2024-03-17T10:48:20;12.80;99.90
18880;DHT22;9572;52.378;13.404;2024-03-17T10:50:48;12.40;99.90
18880;DHT22;9572;52.378;13.404;2024-03-17T10:53:20;11.70;99.90
18880;DHT22;9572;52.378;13.404;2024-03-17T10:56:00;10.60;99.90
18880;DHT22;9572;52.378;13.404;2024-03-17T10:58:34;9.90;99.90
18880;DHT22;9572;52.378;13.404;2024-03-17T11:01:02;9.80;99.90
18880;DHT22;9572;52.378;13.404;2024-03-17T11:03:32;9.70;99.90
18880;DHT22;9572;52.378;13.404;2024-03-17T11:06:01;9.60;99.90
18880;DHT22;9572;52.378;13.404;2024-03-17T11:08:31;9.40;99.90
18880;DHT22;9572;52.378;13.404;2024-03-17T11:10:59;9.40;99.90
18880;DHT22;9572;52.378;13.404;2024-03-17T11:13:26;9.40;99.90
18880;DHT22;9572;52.378;13.404;2024-03-17T11:15:54;9.70;99.90
18880;DHT22;9572;52.378;13.404;2024-03-17T11:18:37;10.30;99.90
18880;DHT22;9572;52.378;13.404;2024-03-17T11:21:06;11.20;99.90
18880;DHT22;9572;52.378;13.404;2024-03-17T11:23:38;11.90;99.90
18880;DHT22;9572;52.378;13.404;2024-03-17T11:26:06;12.50;99.90
18880;DHT22;9572;52.378;13.404;2024-03-17T11:28:47;13.00;99.90
18880;DHT22;9572;52.378;13.404;2024-03-17T11:31:43;13.20;99.90
18880;DHT22;9572;52.378;13.404;2024-03-17T11:34:27;13.70;99.90
18880;DHT22;9572;52.378;13.404;2024-03-17T11:36:54;13.00;99.90
18880;DHT22;9572;52.378;13.404;2024-03-17T11:39:52;12.40;99.90
18880;DHT22;9572;52.378;13.404;2024-03-17T11:42:23;11.40;99.90
18880;DHT22;9572;52.378;13.404;2024-03-17T11:45:03;10.50;99.90
18880;DHT22;9572;52.378;13.404;2024-03-17T11:47:36;10.00;99.90
18880;DHT22;9572;52.378;13.404;2024-03-17T11:50:04;9.80;99.90
18880;DHT22;9572;52.378;13.404;2024-03-17T11:52:32;9.90;99.90
18880;DHT22;9572;52.378;13.404;2024-03-17T11:54:59;10.30;99.90
18880;DHT22;9572;52.378;13.404;2024-03-17T11:57:26;10.50;99.90
18880;DHT22;9572;52.378;13.404;2024-03-17T11:59:53;10.70;99.90
18880;DHT22;9572;52.378;13.404;2024-03-17T12:02:21;10.80;99.90
18880;DHT22;9572;52.378;13.404;2024-03-17T12:04:48;10.70;99.90
18880;DHT22;9572;52.378;13.404;2024-03-17T12:07:16;10.80;99.90
18880;DHT22;9572;52.378;13.404;2024-03-17T12:09:43;10.50;99.90
18880;DHT22;9572;52.378;13.404;2024-03-17T12:12:17;10.50;99.90
18880;DHT22;9572;52.378;13.404;2024-03-17T12:14:45;10.60;99.90
18880;DHT22;9572;52.378;13.404;2024-03-17T12:17:12;10.50;99.90
18880;DHT22;9572;52.378;13.404;2024-03-17T12:19:39;10.50;99.90
18880;DHT22;9572;52.378;13.404;2024-03-17T12:22:08;10.30;99.90
18880;DHT22;9572;52.378;13.404;2024-03-17T12:24:35;9.80;99.90
18880;DHT22;9572;52.378;13.404;2024-03-17T12:27:05;9.70;99.90
18880;DHT22;9572;52.378;13.404;2024-03-17T12:29:34;9.50;99.90
18880;DHT22;9572;52.378;13.404;2024-03-17T12:32:03;9.50;99.90
18880;DHT22;9572;52.378;13.404;2024-03-17T12:34:32;9.30;99.90
18880;DHT22;9572;52.378;13.404;2024-03-17T12:37:00;9.20;99.90
18880;DHT22;9572;52.378;13.404;2024-03-17T12:39:27;9.10;99.90
18880;DHT22;9572;52.378;13.404;2024-03-17T12:42:04;9.10;99.90
18880;DHT22;9572;52.378;13.404;2024-03-17T12:44:32;9.20;99.90
18880;DHT22;9572;52.378;13.404;2024-03-17T12:47:00;9.20;99.90
18880;DHT22;9572;52.378;13.404;2024-03-17T12:49:27;9.20;99.90
18880;DHT22;9572;52.378;13.404;2024-03-17T12:51:54;9.10;99.90
18880;DHT22;9572;52.378;13.404;2024-03-17T12:54:23;9.00;99.90
18880;DHT22;9572;52.378;13.404;2024-03-17T12:56:50;9.00;99.90
18880;DHT22;9572;52.378;13.404;2024-03-17T12:59:42;9.00;99.90
18880;DHT22;9572;52.378;13.404;2024-03-17T13:02:27;9.10;99.90
18880;DHT22;9572;52.378;13.404;2024-03-17T13:05:10;9.20;99.90
18880;DHT22;9572;52.378;13.404;2024-03-17T13:07:39;9.20;99.90
18880;DHT22;9572;52.378;13.404;2024-03-17T13:10:07;9.60;99.90
18880;DHT22;9572;52.378;13.404;2024-03-17T13:12:33;10.00;99.90
18880;DHT22;9572;52.378;13.404;2024-03-17T13:15:02;10.20;99.90
18880;DHT22;9572;52.378;13.404;2024-03-17T13:17:30;10.70;99.90
18880;DHT22;9572;52.378;13.404;2024-03-17T13:19:59;11.10;99.90
18880;DHT22;9572;52.378;13.404;2024-03-17T13:22:26;11.40;99.90
18880;DHT22;9572;52.378;13.404;2024-03-17T13:24:52;11.80;99.90
18880;DHT22;9572;52.378;13.404;2024-03-17T13:27:19;12.00;99.90
18880;DHT22;9572;52.378;13.404;2024-03-17T13:29:48;11.70;99.90
18880;DHT22;9572;52.378;13.404;2024-03-17T13:32:16;11.80;99.90
18880;DHT22;9572;52.378;13.404;2024-03-17T13:34:43;11.30;99.90
18880;DHT22;9572;52.378;13.404;2024-03-17T13:37:11;10.90;99.90
18880;DHT22;9572;52.378;13.404;2024-03-17T13:39:38;10.50;99.90
18880;DHT22;9572;52.378;13.404;2024-03-17T13:42:04;10.20;99.90
18880;DHT22;9572;52.378;13.404;2024-03-17T13:44:33;9.90;99.90
18880;DHT22;9572;52.378;13.404;2024-03-17T13:47:00;9.70;99.90
18880;DHT22;9572;52.378;13.404;2024-03-17T13:49:30;9.60;99.90
18880;DHT22;9572;52.378;13.404;2024-03-17T13:51:57;9.50;99.90
18880;DHT22;9572;52.378;13.404;2024-03-17T13:54:23;9.40;99.90
18880;DHT22;9572;52.378;13.404;2024-03-17T13:56:50;9.40;99.90
18880;DHT22;9572;52.378;13.404;2024-03-17T13:59:17;9.30;99.90
18880;DHT22;9572;52.378;13.404;2024-03-17T14:01:44;9.30;99.90
18880;DHT22;9572;52.378;13.404;2024-03-17T14:04:13;9.40;99.90
18880;DHT22;9572;52.378;13.404;2024-03-17T14:06:44;9.70;99.90
18880;DHT22;9572;52.378;13.404;2024-03-17T14:09:11;9.90;99.90
18880;DHT22;9572;52.378;13.404;2024-03-17T14:11:38;10.00;99.90
18880;DHT22;9572;52.378;13.404;2024-03-17T14:14:05;10.00;99.90
18880;DHT22;9572;52.378;13.404;2024-03-17T14:16:33;9.90;99.90
18880;DHT22;9572;52.378;13.404;2024-03-17T14:19:00;9.60;99.90
18880;DHT22;9572;52.378;13.404;2024-03-17T14:21:27;9.30;99.90
18880;DHT22;9572;52.378;13.404;2024-03-17T14:23:56;9.30;99.90
18880;DHT22;9572;52.378;13.404;2024-03-17T14:26:23;9.10;99.90
18880;DHT22;9572;52.378;13.404;2024-03-17T14:28:49;9.10;99.90
18880;DHT22;9572;52.378;13.404;2024-03-17T14:31:17;9.50;99.90
18880;DHT22;9572;52.378;13.404;2024-03-17T14:33:44;9.90;99.90
18880;DHT22;9572;52.378;13.404;2024-03-17T14:36:10;10.10;99.90
18880;DHT22;9572;52.378;13.404;2024-03-17T14:38:37;10.10;99.90
18880;DHT22;9572;52.378;13.404;2024-03-17T14:41:05;10.10;99.90
18880;DHT22;9572;52.378;13.404;2024-03-17T14:43:32;10.10;99.90
18880;DHT22;9572;52.378;13.404;2024-03-17T14:46:03;9.90;99.90
18880;DHT22;9572;52.378;13.404;2024-03-17T14:48:30;9.90;99.90
18880;DHT22;9572;52.378;13.404;2024-03-17T14:50:57;10.10;99.90
18880;DHT22;9572;52.378;13.404;2024-03-17T14:53:23;10.30;99.90
18880;DHT22;9572;52.378;13.404;2024-03-17T14:55:50;10.60;99.90
18880;DHT22;9572;52.378;13.404;2024-03-17T14:58:19;10.50;99.90
18880;DHT22;9572;52.378;13.404;2024-03-17T15:00:46;10.30;99.90
18880;DHT22;9572;52.378;13.404;2024-03-17T15:03:14;10.10;99.90
18880;DHT22;9572;52.378;13.404;2024-03-17T15:05:40;10.00;99.90
18880;DHT22;9572;52.378;13.404;2024-03-17T15:08:08;10.10;99.90
18880;DHT22;9572;52.378;13.404;2024-03-17T15:10:35;10.20;99.90
18880;DHT22;9572;52.378;13.404;2024-03-17T15:13:02;10.30;99.90
18880;DHT22;9572;52.378;13.404;2024-03-17T15:15:30;10.20;99.90
18880;DHT22;9572;52.378;13.404;2024-03-17T15:17:56;10.10;99.90
18880;DHT22;9572;52.378;13.404;2024-03-17T15:20:23;10.00;99.90
18880;DHT22;9572;52.378;13.404;2024-03-17T15:22:50;9.80;99.90
18880;DHT22;9572;52.378;13.404;2024-03-17T15:25:18;9.70;99.90
18880;DHT22;9572;52.378;13.404;2024-03-17T15:27:47;9.60;99.90
18880;DHT22;9572;52.378;13.404;2024-03-17T15:30:15;9.50;99.90
18880;DHT22;9572;52.378;13.404;2024-03-17T15:32:45;9.40;99.90
18880;DHT22;9572;52.378;13.404;2024-03-17T15:35:12;9.40;99.90
18880;DHT22;9572;52.378;13.404;2024-03-17T15:37:39;9.30;99.90
18880;DHT22;9572;52.378;13.404;2024-03-17T15:40:07;9.30;99.90
18880;DHT22;9572;52.378;13.404;2024-03-17T15:42:42;9.40;99.90
18880;DHT22;9572;52.378;13.404;2024-03-17T15:45:09;9.40;99.90
18880;DHT22;9572;52.378;13.404;2024-03-17T15:47:35;9.40;99.90